createdAt,value
2022-10-18T00:01:45.166Z,101120.31
2022-10-18T00:04:13.483Z,101113.28
2022-10-18T00:06:43.525Z,101123.16
2022-10-18T00:09:12.264Z,101125.22
2022-10-18T00:11:40.930Z,101115.69
2022-10-18T00:14:09.263Z,101122.44
2022-10-18T00:16:37.631Z,101122.59
2022-10-18T00:19:06.049Z,101123.78
2022-10-18T00:21:34.525Z,101130.84
2022-10-18T00:24:02.982Z,101126.47
2022-10-18T00:26:32.757Z,101125.63
2022-10-18T00:29:05.510Z,101129.16
2022-10-18T00:31:39.119Z,101130.84
2022-10-18T00:34:16.049Z,101135.38
2022-10-18T00:36:45.496Z,101142.63
2022-10-18T00:39:20.665Z,101148.00
2022-10-18T00:41:49.126Z,101164.66
2022-10-18T00:44:17.444Z,101157.44
2022-10-18T00:46:48.508Z,101162.81
2022-10-18T00:49:52.858Z,101147.19
2022-10-18T00:52:27.616Z,101144.78
2022-10-18T00:54:58.006Z,101143.22
2022-10-18T00:57:27.271Z,101143.69
2022-10-18T00:59:55.749Z,101142.31
2022-10-18T01:02:24.548Z,101149.00
2022-10-18T01:04:52.936Z,101151.31
2022-10-18T01:07:26.514Z,101156.13
2022-10-18T01:10:05.048Z,101149.75
2022-10-18T01:13:11.752Z,101166.34
2022-10-18T01:16:18.329Z,101162.81
2022-10-18T01:19:12.839Z,101169.22
2022-10-18T01:22:29.091Z,101160.31
2022-10-18T01:27:47.888Z,101166.06
2022-10-18T01:30:21.867Z,101167.06
2022-10-18T01:32:54.799Z,101160.69
2022-10-18T01:35:36.229Z,101168.75
2022-10-18T01:38:07.824Z,101159.84
2022-10-18T01:40:38.174Z,101162.53
2022-10-18T01:45:40.108Z,101156.03
2022-10-18T01:48:08.514Z,101149.84
2022-10-18T01:50:37.149Z,101157.53
2022-10-18T01:53:05.474Z,101159.19
2022-10-18T01:55:44.753Z,101162.34
2022-10-18T01:58:32.266Z,101164.84
2022-10-18T02:03:48.832Z,101158.66
2022-10-18T02:06:33.324Z,101161.81
2022-10-18T02:09:13.663Z,101154.59
2022-10-18T02:11:43.940Z,101153.53
2022-10-18T02:14:14.587Z,101159.75
2022-10-18T02:16:51.837Z,101160.59
2022-10-18T02:19:34.287Z,101156.91
2022-10-18T02:22:02.823Z,101161.59
2022-10-18T02:24:45.475Z,101158.75
2022-10-18T02:27:14.103Z,101161.81
2022-10-18T02:29:43.207Z,101162.63
2022-10-18T02:32:35.883Z,101161.59
2022-10-18T02:35:30.344Z,101173.19
2022-10-18T02:38:01.080Z,101167.16
2022-10-18T02:40:29.539Z,101168.84
2022-10-18T02:43:00.322Z,101162.28
2022-10-18T02:45:29.009Z,101169.13
2022-10-18T02:47:57.338Z,101165.78
2022-10-18T02:50:25.779Z,101179.03
2022-10-18T02:52:54.108Z,101175.50
2022-10-18T02:55:22.524Z,101169.13
2022-10-18T02:57:50.872Z,101174.31
2022-10-18T03:00:19.335Z,101168.97
2022-10-18T03:05:16.317Z,101176.84
2022-10-18T03:07:44.686Z,101177.69
2022-10-18T03:10:13.079Z,101178.31
2022-10-18T03:12:41.427Z,101176.69
2022-10-18T03:15:09.847Z,101176.47
2022-10-18T03:17:38.257Z,101178.31
2022-10-18T03:20:07.014Z,101175.47
2022-10-18T03:22:35.938Z,101176.94
2022-10-18T03:25:04.311Z,101185.63
2022-10-18T03:27:32.968Z,101174.91
2022-10-18T03:30:01.585Z,101177.59
2022-10-18T03:32:30.522Z,101181.09
2022-10-18T03:34:58.966Z,101184.00
2022-10-18T03:37:27.384Z,101182.97
2022-10-18T03:39:55.767Z,101181.94
2022-10-18T03:42:24.173Z,101179.94
2022-10-18T03:44:52.526Z,101181.59
2022-10-18T03:47:20.915Z,101177.88
2022-10-18T03:49:52.007Z,101181.22
2022-10-18T03:52:23.086Z,101181.22
2022-10-18T03:54:51.488Z,101182.88
2022-10-18T03:57:19.856Z,101192.78
2022-10-18T03:59:48.798Z,101185.41
2022-10-18T04:02:17.187Z,101188.72
2022-10-18T04:04:45.630Z,101189.38
2022-10-18T04:07:13.929Z,101182.16
2022-10-18T04:09:42.304Z,101177.44
2022-10-18T04:12:10.662Z,101176.41
2022-10-18T04:14:39.054Z,101173.56
2022-10-18T04:17:07.463Z,101154.06
2022-10-18T04:19:35.778Z,101162.34
2022-10-18T04:22:04.162Z,101169.56
2022-10-18T04:24:32.520Z,101172.25
2022-10-18T04:27:00.839Z,101172.06
2022-10-18T04:29:29.214Z,101171.69
2022-10-18T04:31:57.576Z,101177.72
2022-10-18T04:34:25.964Z,101165.97
2022-10-18T04:36:54.454Z,101163.81
2022-10-18T04:39:23.240Z,101161.31
2022-10-18T04:41:51.547Z,101160.66
2022-10-18T04:44:19.915Z,101164.81
2022-10-18T04:46:48.249Z,101164.66
2022-10-18T04:49:16.683Z,101160.75
2022-10-18T04:51:45.065Z,101170.28
2022-10-18T04:54:13.502Z,101167.22
2022-10-18T04:56:41.834Z,101173.06
2022-10-18T04:59:10.156Z,101165.69
2022-10-18T05:01:38.572Z,101160.94
2022-10-18T05:04:06.903Z,101164.25
2022-10-18T05:06:35.306Z,101164.25
2022-10-18T05:09:03.650Z,101147.72
2022-10-18T05:11:32.315Z,101155.56
2022-10-18T05:14:00.656Z,101136.59
2022-10-18T05:16:29.294Z,101139.91
2022-10-18T05:18:57.717Z,101133.53
2022-10-18T05:21:26.162Z,101128.78
2022-10-18T05:23:57.294Z,101125.72
2022-10-18T05:26:25.681Z,101126.38
2022-10-18T05:28:54.156Z,101124.50
2022-10-18T05:31:22.703Z,101121.81
2022-10-18T05:33:51.054Z,101121.81
2022-10-18T05:36:19.373Z,101123.69
2022-10-18T05:38:48.433Z,101121.34
2022-10-18T05:41:16.814Z,101118.88
2022-10-18T05:43:45.132Z,101116.34
2022-10-18T05:46:15.413Z,101112.66
2022-10-18T05:48:45.473Z,101116.81
2022-10-18T05:51:14.365Z,101120.53
2022-10-18T05:53:42.833Z,101112.47
2022-10-18T05:56:12.474Z,101108.28
2022-10-18T05:58:41.595Z,101100.59
2022-10-18T06:01:10.892Z,101101.66
2022-10-18T06:03:39.422Z,101105.16
2022-10-18T06:06:11.526Z,101104.81
2022-10-18T06:08:41.367Z,101102.91
2022-10-18T06:11:10.409Z,101104.59
2022-10-18T06:13:47.273Z,101098.84
2022-10-18T06:16:18.003Z,101103.22
2022-10-18T06:18:50.472Z,101103.28
2022-10-18T06:21:19.835Z,101096.69
2022-10-18T06:23:58.856Z,101096.94
2022-10-18T06:26:28.104Z,101100.94
2022-10-18T06:28:56.664Z,101104.81
2022-10-18T06:31:25.093Z,101103.22
2022-10-18T06:33:53.500Z,101104.84
2022-10-18T06:36:23.085Z,101103.66
2022-10-18T06:38:51.854Z,101103.66
2022-10-18T06:41:20.489Z,101101.44
2022-10-18T06:43:53.318Z,101089.44
2022-10-18T06:46:21.708Z,101082.84
2022-10-18T06:48:50.005Z,101083.31
2022-10-18T06:51:18.390Z,101074.59
2022-10-18T06:53:59.066Z,101073.38
2022-10-18T06:56:27.893Z,101081.44
2022-10-18T06:58:56.243Z,101091.53
2022-10-18T07:01:24.933Z,101081.84
2022-10-18T07:03:54.977Z,101079.78
2022-10-18T07:06:24.817Z,101079.78
2022-10-18T07:08:54.220Z,101077.09
2022-10-18T07:11:26.469Z,101077.56
2022-10-18T07:14:03.075Z,101085.63
2022-10-18T07:16:32.029Z,101083.16
2022-10-18T07:19:00.333Z,101088.53
2022-10-18T07:21:28.751Z,101087.31
2022-10-18T07:23:57.813Z,101090.00
2022-10-18T07:26:29.075Z,101080.56
2022-10-18T07:29:02.472Z,101081.41
2022-10-18T07:31:31.557Z,101078.31
2022-10-18T07:33:59.866Z,101086.59
2022-10-18T07:36:28.255Z,101102.94
2022-10-18T07:38:56.804Z,101111.59
2022-10-18T07:41:25.456Z,101122.28
2022-10-18T07:43:54.292Z,101123.19
2022-10-18T07:46:23.578Z,101116.53
2022-10-18T07:48:52.422Z,101107.53
2022-10-18T07:51:21.962Z,101105.38
2022-10-18T07:53:50.426Z,101107.06
2022-10-18T07:56:22.124Z,101112.03
2022-10-18T07:58:54.259Z,101128.50
2022-10-18T08:01:24.316Z,101129.91
2022-10-18T08:03:53.280Z,101133.03
2022-10-18T08:06:23.270Z,101134.66
2022-10-18T08:08:52.327Z,101144.28
2022-10-18T08:11:26.386Z,101138.06
2022-10-18T08:13:55.622Z,101144.53
2022-10-18T08:16:27.805Z,101148.59
2022-10-18T08:18:58.174Z,101126.84
2022-10-18T08:21:27.281Z,101127.00
2022-10-18T08:23:55.677Z,101139.63
2022-10-18T08:26:24.990Z,101132.56
2022-10-18T08:28:54.269Z,101143.13
2022-10-18T08:31:32.499Z,101140.63
2022-10-18T08:34:01.005Z,101148.00
2022-10-18T08:36:29.393Z,101144.69
2022-10-18T08:38:57.692Z,101147.38
2022-10-18T08:41:38.249Z,101146.06
2022-10-18T08:44:27.047Z,101139.19
2022-10-18T08:47:06.974Z,101141.13
2022-10-18T08:49:46.866Z,101140.66
2022-10-18T08:52:45.899Z,101145.53
2022-10-18T08:56:14.509Z,101143.69
2022-10-18T08:58:45.488Z,101160.63
2022-10-18T09:01:38.164Z,101162.81
2022-10-18T09:04:46.309Z,101166.16
2022-10-18T09:08:09.764Z,101164.78
2022-10-18T09:11:06.329Z,101152.75
2022-10-18T09:14:17.424Z,101159.59
2022-10-18T09:16:58.868Z,101163.94
2022-10-18T09:19:38.606Z,101164.78
2022-10-18T09:22:15.591Z,101165.63
2022-10-18T09:25:19.782Z,101151.28
2022-10-18T09:28:25.389Z,101147.81
2022-10-18T09:31:07.575Z,101149.66
2022-10-18T09:34:01.614Z,101128.19
2022-10-18T09:36:35.768Z,101120.97
2022-10-18T09:39:16.905Z,101123.34
2022-10-18T09:42:17.637Z,101124.31
2022-10-18T09:44:52.729Z,101128.00
2022-10-18T09:47:26.363Z,101143.72
2022-10-18T09:50:01.928Z,101140.03
2022-10-18T09:52:41.123Z,101154.47
2022-10-18T09:55:23.789Z,101157.94
2022-10-18T09:58:00.651Z,101163.56
2022-10-18T10:00:39.360Z,101162.38
2022-10-18T10:03:14.874Z,101169.06
2022-10-18T10:05:44.458Z,101174.91
2022-10-18T10:08:13.067Z,101177.59
2022-10-18T10:10:47.960Z,101182.22
2022-10-18T10:13:22.908Z,101185.56
2022-10-18T10:16:02.683Z,101193.28
2022-10-18T10:18:38.266Z,101186.03
2022-10-18T10:21:15.005Z,101186.59
2022-10-18T10:23:54.757Z,101189.75
2022-10-18T10:26:38.986Z,101181.84
2022-10-18T10:30:07.292Z,101176.97
2022-10-18T10:32:49.247Z,101176.81
2022-10-18T10:38:30.003Z,101179.69
2022-10-18T10:40:58.855Z,101180.53
2022-10-18T10:43:40.066Z,101179.34
2022-10-18T10:46:13.883Z,101186.38
2022-10-18T10:49:21.654Z,101188.91
2022-10-18T10:51:53.719Z,101194.28
2022-10-18T10:54:35.617Z,101196.22
2022-10-18T10:57:12.448Z,101199.53
2022-10-18T10:59:50.111Z,101197.53
2022-10-18T11:02:21.688Z,101192.69
2022-10-18T11:04:56.023Z,101199.75
2022-10-18T11:07:44.519Z,101192.69
2022-10-18T11:10:13.473Z,101178.72
2022-10-18T11:13:03.215Z,101192.63
2022-10-18T11:15:46.418Z,101178.34
2022-10-18T11:18:33.745Z,101185.50
2022-10-18T11:21:18.922Z,101184.84
2022-10-18T11:23:47.261Z,101192.72
2022-10-18T11:26:24.448Z,101200.59
2022-10-18T11:29:10.150Z,101213.47
2022-10-18T11:31:58.965Z,101202.06
2022-10-18T11:34:46.039Z,101205.59
2022-10-18T11:37:51.999Z,101202.16
2022-10-18T11:40:48.727Z,101202.38
2022-10-18T11:44:02.750Z,101212.63
2022-10-18T11:46:46.989Z,101212.81
2022-10-18T11:49:50.202Z,101219.22
2022-10-18T11:53:00.422Z,101219.69
2022-10-18T11:55:31.951Z,101229.28
2022-10-18T11:58:51.491Z,101222.66
2022-10-18T12:02:12.293Z,101219.50
2022-10-18T12:04:58.397Z,101221.34
2022-10-18T12:07:42.008Z,101226.72
2022-10-18T12:10:26.153Z,101223.34
2022-10-18T12:13:09.206Z,101221.03
2022-10-18T12:15:40.384Z,101214.47
2022-10-18T12:18:17.183Z,101212.16
2022-10-18T12:20:50.179Z,101215.84
2022-10-18T12:23:47.851Z,101207.97
2022-10-18T12:26:16.437Z,101210.84
2022-10-18T12:28:44.746Z,101211.50
2022-10-18T12:31:40.039Z,101209.13
2022-10-18T12:34:35.995Z,101202.69
2022-10-18T12:37:16.138Z,101201.84
2022-10-18T12:42:50.613Z,101194.28
2022-10-18T12:45:33.477Z,101206.53
2022-10-18T12:48:06.920Z,101208.66
2022-10-18T12:50:43.708Z,101194.00
2022-10-18T12:53:19.477Z,101194.47
2022-10-18T12:55:51.602Z,101193.28
2022-10-18T12:58:33.110Z,101194.41
2022-10-18T13:01:04.410Z,101197.34
2022-10-18T13:03:58.714Z,101199.50
2022-10-18T13:06:27.209Z,101203.47
2022-10-18T13:09:19.715Z,101191.31
2022-10-18T13:11:48.040Z,101189.28
2022-10-18T13:15:05.635Z,101190.78
2022-10-18T13:18:09.730Z,101189.75
2022-10-18T13:24:48.800Z,101189.75
2022-10-18T13:27:47.837Z,101185.78
2022-10-18T13:30:40.372Z,101188.47
2022-10-18T13:33:34.522Z,101192.38
2022-10-18T13:36:22.888Z,101199.59
2022-10-18T13:38:55.658Z,101191.31
2022-10-18T13:41:34.559Z,101200.88
2022-10-18T13:44:37.626Z,101205.44
2022-10-18T13:47:06.821Z,101205.22
2022-10-18T13:49:39.979Z,101205.69
2022-10-18T13:52:26.577Z,101215.13
2022-10-18T13:55:48.168Z,101212.53
2022-10-18T13:58:59.175Z,101215.91
2022-10-18T14:02:19.305Z,101227.56
2022-10-18T14:05:16.527Z,101228.50
2022-10-18T14:07:47.219Z,101230.25
2022-10-18T14:11:01.885Z,101226.38
2022-10-18T14:13:46.306Z,101232.94
2022-10-18T14:16:29.420Z,101230.25
2022-10-18T14:19:09.438Z,101231.66
2022-10-18T14:21:41.203Z,101238.97
2022-10-18T14:24:23.603Z,101232.28
2022-10-18T14:27:16.563Z,101235.81
2022-10-18T14:29:45.608Z,101232.88
2022-10-18T14:32:29.430Z,101236.19
2022-10-18T14:35:20.665Z,101235.19
2022-10-18T14:37:50.032Z,101232.28
2022-10-18T14:40:40.236Z,101230.91
2022-10-18T14:43:15.257Z,101233.59
2022-10-18T14:45:44.241Z,101233.59
2022-10-18T14:48:22.841Z,101230.63
2022-10-18T14:51:00.611Z,101230.81
2022-10-18T14:53:36.002Z,101225.16
2022-10-18T14:56:07.458Z,101234.25
2022-10-18T14:58:38.458Z,101236.72
2022-10-18T15:01:07.180Z,101232.41
2022-10-18T15:03:44.069Z,101238.41
2022-10-18T15:06:21.606Z,101229.34
2022-10-18T15:08:56.872Z,101228.66
2022-10-18T15:11:27.715Z,101227.19
2022-10-18T15:14:06.943Z,101230.00
2022-10-18T15:16:35.956Z,101232.00
2022-10-18T15:19:28.555Z,101231.63
2022-10-18T15:22:30.337Z,101234.31
2022-10-18T15:25:14.579Z,101227.31
2022-10-18T15:27:52.768Z,101230.16
2022-10-18T15:30:42.487Z,101227.47
2022-10-18T15:33:24.340Z,101230.16
2022-10-18T15:35:53.664Z,101221.47
2022-10-18T15:38:32.251Z,101222.84
2022-10-18T15:41:00.695Z,101220.06
2022-10-18T15:43:29.126Z,101222.94
2022-10-18T15:46:06.469Z,101228.97
2022-10-18T15:48:41.515Z,101220.06
2022-10-18T15:51:45.127Z,101224.59
2022-10-18T15:54:31.002Z,101224.59
2022-10-18T15:56:59.484Z,101227.47
2022-10-18T15:59:30.910Z,101223.66
2022-10-18T16:01:59.326Z,101224.03
2022-10-18T16:04:33.542Z,101224.41
2022-10-18T16:07:02.182Z,101228.66
2022-10-18T16:09:31.024Z,101226.13
2022-10-18T16:11:59.690Z,101227.34
2022-10-18T16:14:29.869Z,101227.06
2022-10-18T16:17:02.556Z,101233.97
2022-10-18T16:19:32.198Z,101226.84
2022-10-18T16:22:05.972Z,101232.72
2022-10-18T16:24:34.922Z,101240.56
2022-10-18T16:27:03.420Z,101245.44
2022-10-18T16:29:33.003Z,101247.00
2022-10-18T16:32:01.534Z,101249.22
2022-10-18T16:34:32.156Z,101246.72
2022-10-18T16:37:00.925Z,101260.66
2022-10-18T16:39:32.153Z,101262.03
2022-10-18T16:42:00.452Z,101263.22
2022-10-18T16:44:28.967Z,101257.38
2022-10-18T16:46:57.420Z,101261.91
2022-10-18T16:49:27.369Z,101262.25
2022-10-18T16:51:56.110Z,101270.50
2022-10-18T16:54:24.896Z,101262.94
2022-10-18T16:56:53.233Z,101267.28
2022-10-18T16:59:33.137Z,101253.69
2022-10-18T17:02:05.662Z,101261.91
2022-10-18T17:04:34.505Z,101259.09
2022-10-18T17:07:03.005Z,101270.38
2022-10-18T17:09:31.814Z,101268.41
2022-10-18T17:12:00.254Z,101267.25
2022-10-18T17:14:28.844Z,101274.66
2022-10-18T17:16:57.558Z,101279.16
2022-10-18T17:19:25.973Z,101273.16
2022-10-18T17:21:56.796Z,101284.03
2022-10-18T17:24:27.380Z,101285.88
2022-10-18T17:26:55.735Z,101277.00
2022-10-18T17:29:24.089Z,101285.25
2022-10-18T17:31:52.450Z,101285.75
2022-10-18T17:34:21.520Z,101287.44
2022-10-18T17:36:50.084Z,101293.44
2022-10-18T17:39:18.541Z,101289.41
2022-10-18T17:41:46.991Z,101289.25
2022-10-18T17:44:15.419Z,101300.47
2022-10-18T17:46:43.977Z,101294.91
2022-10-18T17:49:14.231Z,101289.03
2022-10-18T17:51:43.020Z,101290.31
2022-10-18T17:54:11.474Z,101293.19
2022-10-18T17:56:41.375Z,101292.19
2022-10-18T17:59:09.866Z,101290.69
2022-10-18T18:01:38.385Z,101290.88
2022-10-18T18:04:06.587Z,101297.44
2022-10-18T18:06:39.445Z,101294.75
2022-10-18T18:09:11.937Z,101292.88
2022-10-18T18:11:43.534Z,101290.88
2022-10-18T18:14:12.993Z,101287.19
2022-10-18T18:16:46.190Z,101290.03
2022-10-18T18:19:15.582Z,101297.44
2022-10-18T18:21:44.339Z,101290.19
2022-10-18T18:24:13.978Z,101293.91
2022-10-18T18:26:43.342Z,101287.50
2022-10-18T18:29:14.155Z,101287.50
2022-10-18T18:31:43.783Z,101292.06
2022-10-18T18:34:12.787Z,101290.38
2022-10-18T18:36:41.256Z,101291.75
2022-10-18T18:39:10.029Z,101292.28
2022-10-18T18:41:38.579Z,101299.00
2022-10-18T18:44:07.978Z,101297.31
2022-10-18T18:46:38.882Z,101300.88
2022-10-18T18:49:08.481Z,101297.72
2022-10-18T18:51:39.712Z,101297.22
2022-10-18T18:54:10.292Z,101301.75
2022-10-18T18:56:39.169Z,101300.75
2022-10-18T18:59:08.016Z,101296.41
2022-10-18T19:01:39.457Z,101301.13
2022-10-18T19:04:09.338Z,101296.94
2022-10-18T19:06:43.919Z,101299.63
2022-10-18T19:09:22.117Z,101303.66
2022-10-18T19:11:53.442Z,101302.28
2022-10-18T19:16:55.461Z,101308.50
2022-10-18T19:19:28.499Z,101311.34
2022-10-18T19:22:03.618Z,101315.88
2022-10-18T19:24:32.532Z,101308.84
2022-10-18T19:27:08.709Z,101311.69
2022-10-18T19:29:40.034Z,101319.06
2022-10-18T19:32:12.297Z,101314.22
2022-10-18T19:34:41.492Z,101316.91
2022-10-18T19:37:10.553Z,101319.75
2022-10-18T19:39:39.550Z,101316.56
2022-10-18T19:42:14.696Z,101328.13
2022-10-18T19:44:45.649Z,101319.25
2022-10-18T19:47:15.674Z,101317.75
2022-10-18T19:49:44.254Z,101322.44
2022-10-18T19:52:13.211Z,101329.81
2022-10-18T19:54:41.784Z,101324.78
2022-10-18T19:57:10.172Z,101318.13
2022-10-18T20:02:16.061Z,101341.03
2022-10-18T20:04:44.405Z,101327.00
2022-10-18T20:07:12.890Z,101328.16
2022-10-18T20:09:41.257Z,101321.47
2022-10-18T20:12:09.813Z,101331.53
2022-10-18T20:14:38.210Z,101332.00
2022-10-18T20:17:06.814Z,101330.31
2022-10-18T20:19:35.182Z,101332.50
2022-10-18T20:22:03.681Z,101337.19
2022-10-18T20:24:32.039Z,101338.88
2022-10-18T20:27:00.767Z,101334.84
2022-10-18T20:29:30.271Z,101337.84
2022-10-18T20:31:58.670Z,101339.72
2022-10-18T20:34:28.527Z,101338.38
2022-10-18T20:36:57.270Z,101337.00
2022-10-18T20:39:25.736Z,101336.50
2022-10-18T20:41:54.323Z,101336.69
2022-10-18T20:44:22.827Z,101338.66
2022-10-18T20:46:51.139Z,101347.88
2022-10-18T20:52:06.601Z,101356.72
2022-10-18T20:54:35.141Z,101361.72
2022-10-18T20:57:03.540Z,101350.34
2022-10-18T20:59:32.079Z,101356.84
2022-10-18T21:02:00.476Z,101356.84
2022-10-18T21:04:29.021Z,101364.56
2022-10-18T21:06:57.354Z,101361.13
2022-10-18T21:09:25.729Z,101367.16
2022-10-18T21:11:54.677Z,101365.81
2022-10-18T21:14:24.856Z,101366.97
2022-10-18T21:16:53.810Z,101363.78
2022-10-18T21:19:25.936Z,101371.13
2022-10-18T21:21:57.129Z,101371.13
2022-10-18T21:24:26.704Z,101370.47
2022-10-18T21:26:55.596Z,101377.78
2022-10-18T21:29:24.879Z,101393.19
2022-10-18T21:31:59.291Z,101393.50
2022-10-18T21:34:34.567Z,101395.16
2022-10-18T21:37:02.830Z,101398.34
2022-10-18T21:39:31.285Z,101395.66
2022-10-18T21:41:59.647Z,101387.50
2022-10-18T21:44:28.153Z,101383.16
2022-10-18T21:46:56.944Z,101377.97
2022-10-18T21:49:26.303Z,101376.09
2022-10-18T21:51:54.615Z,101380.28
2022-10-18T21:54:23.161Z,101386.78
2022-10-18T21:56:52.067Z,101385.28
2022-10-18T21:59:20.377Z,101378.56
2022-10-18T22:01:48.642Z,101373.53
2022-10-18T22:04:23.653Z,101379.34
2022-10-18T22:06:52.449Z,101381.00
2022-10-18T22:09:21.388Z,101364.44
2022-10-18T22:11:53.688Z,101371.09
2022-10-18T22:14:23.548Z,101373.09
2022-10-18T22:16:51.973Z,101367.25
2022-10-18T22:19:20.550Z,101370.22
2022-10-18T22:21:49.148Z,101362.16
2022-10-18T22:24:17.732Z,101355.13
2022-10-18T22:26:47.372Z,101359.94
2022-10-18T22:29:21.651Z,101356.59
2022-10-18T22:31:53.499Z,101363.78
2022-10-18T22:34:27.756Z,101363.09
2022-10-18T22:36:56.314Z,101367.91
2022-10-18T22:39:24.606Z,101368.22
2022-10-18T22:41:55.922Z,101375.03
2022-10-18T22:44:24.724Z,101377.84
2022-10-18T22:46:53.257Z,101364.59
2022-10-18T22:49:21.592Z,101353.25
2022-10-18T22:51:50.014Z,101360.19
2022-10-18T22:54:18.512Z,101357.84
2022-10-18T22:56:46.899Z,101354.78
2022-10-18T22:59:15.220Z,101354.09
2022-10-18T23:01:43.496Z,101349.75
2022-10-18T23:04:12.158Z,101354.88
2022-10-18T23:06:41.379Z,101357.84
2022-10-18T23:09:12.238Z,101355.63
2022-10-18T23:11:40.609Z,101359.19
2022-10-18T23:14:08.957Z,101370.34
2022-10-18T23:16:37.806Z,101361.81
2022-10-18T23:19:06.488Z,101373.22
2022-10-18T23:21:35.162Z,101372.84
2022-10-18T23:24:04.622Z,101378.19
2022-10-18T23:26:34.657Z,101366.66
2022-10-18T23:29:03.083Z,101374.13
2022-10-18T23:31:33.946Z,101373.16
2022-10-18T23:34:05.520Z,101374.19
2022-10-18T23:36:35.627Z,101376.63
2022-10-18T23:39:06.476Z,101372.88
2022-10-18T23:41:34.871Z,101378.50
2022-10-18T23:44:03.726Z,101380.63
2022-10-18T23:46:32.056Z,101380.69
2022-10-18T23:49:00.673Z,101375.28
2022-10-18T23:51:28.673Z,101365.88
2022-10-18T23:53:56.997Z,101380.06
2022-10-18T23:56:25.351Z,101379.88
2022-10-18T23:58:53.700Z,101383.03
